Aérodrome :
LOGIN :

S'inscrire | Disclaimer

   EN    FR    IT 

 










Légende :    VFR   VFR Marginal   IFR   IFR Intensif   IFR Très Intensif
Visi : 
Plafond : 
>= 8 km
>= 3000ft
5 à 8 km
1000 à 3000 ft
1500m à 5 km
500 à 1000 ft
800 à 1500m
200 à 500 ft
< 800m
< 200 ft
Symboles :   Orages  Brouillard  Fortes neiges  Fortes précipitations  Vent > 20 kt
SIGMETs :   Divers  Orages  Givrage  Turbulence  Onde Orograph.  Cendres Volcan.






- Altitude de l'aérodrome : 202 ft
- Code IATA : LGW


EGKK - London Gatwick

DERNIER METAR :
  • 180120Z 24014G27KT 210V280 8000 SCT015 BKN020 11/10 Q1001 RESHRA

METARs EXPIRÉS :
  • 180050Z 18006KT 130V210 9999 SCT024 12/11 Q1000
  • 180020Z 17005KT 130V200 9999 SCT022 12/11 Q1001
  • 172350Z 17006KT 130V200 9999 FEW020 SCT030 11/11 Q1001
  • 172320Z 14005KT 110V190 9999 FEW018 SCT025 11/11 Q1002
  • 172250Z 15006KT 120V180 9999 FEW030 11/11 Q1002

TAF AMD TAF EGKK
Valide du 18 à 00h jusqu'au 19 à 06h UTC


180058Z 1800/1906 17008KT 9999 SCT030
TEMPO 1800/1906 7000 SHRA
PROB40
TEMPO 1800/1807 20015G25KT 4000 +SHRA +TSRA BKN014CB
BECMG 1804/1807 24012KT
PROB30
TEMPO 1811/1821 23015G25KT 4000 +SHRA
PROB30 1900/1906 4000 BR
BECMG 1903/1906 18004KT



MET'MAP, la Météo Aéronautique d'un coup d'oeil ! - Copyright ORBIFLY Décembre 2007 - Disclaimer

ORBIFLY MET'MAP TEAM :

Programmation & Développement : Alexandra Zaïnal
Conception & Développement : Baudouin d'Aumeries
Co-Programmation & Développement : Marc-Olivier Méhu
Soutien technique & logistique : Manuel Goepfert

Contact : metmap@orbifly.com




SOURCES & CREDITS :

   NOAA